Time;durP1;ratioP1;P1;durP2;ratioP2;P2;SDS_P1;SDS_P2;PMS_P1;PMS_P2;Temp;Humidity;BMP_temperature;BMP_pressure;BME280_temperature;BME280_humidity;BME280_pressure;Samples;Min_cycle;Max_cycle;Signal;HPM_P1;HPM_P2
2024/02/14 00:02:18;;;;;;;18.98;9.75;;;1.50;99.90;;;;;;5060606;28;20107;-66
2024/02/14 00:04:43;;;;;;;17.83;9.90;;;1.20;99.90;;;;;;5062066;28;20366;-67
2024/02/14 00:07:09;;;;;;;19.27;10.20;;;1.40;99.90;;;;;;5062012;28;20210;-67
2024/02/14 00:09:35;;;;;;;19.88;10.35;;;1.40;99.90;;;;;;5061749;28;20036;-67
2024/02/14 00:12:01;;;;;;;17.17;9.95;;;1.50;99.90;;;;;;5061526;28;20192;-67
2024/02/14 00:14:26;;;;;;;22.35;10.75;;;1.40;99.90;;;;;;5061553;28;20025;-67
2024/02/14 00:16:52;;;;;;;19.38;9.50;;;1.20;99.90;;;;;;5061496;28;20099;-67
2024/02/14 00:19:18;;;;;;;23.05;10.82;;;1.30;99.90;;;;;;5061811;28;20084;-67
2024/02/14 00:21:43;;;;;;;19.42;11.10;;;1.40;99.90;;;;;;5061377;28;20021;-67
2024/02/14 00:24:09;;;;;;;19.15;10.57;;;1.40;99.90;;;;;;5061551;28;20017;-67
2024/02/14 00:26:35;;;;;;;19.80;10.65;;;1.30;99.90;;;;;;5060127;28;20041;-69
2024/02/14 00:29:01;;;;;;;19.17;10.55;;;1.40;99.90;;;;;;5061401;28;20017;-69
2024/02/14 00:31:26;;;;;;;21.90;10.48;;;1.40;99.90;;;;;;5060101;28;20213;-69
2024/02/14 00:33:52;;;;;;;26.33;10.15;;;1.30;99.90;;;;;;5060568;28;20055;-69
2024/02/14 00:36:18;;;;;;;23.20;11.60;;;;;;;;;;5060252;28;20233;-68
2024/02/14 00:38:44;;;;;;;17.95;10.15;;;1.20;99.90;;;;;;5060358;28;20036;-69
2024/02/14 00:41:11;;;;;;;18.85;10.63;;;1.20;99.90;;;;;;5060254;28;20017;-69
2024/02/14 00:43:36;;;;;;;21.67;11.43;;;1.10;99.90;;;;;;5060491;28;20017;-66
2024/02/14 00:46:02;;;;;;;19.33;11.18;;;1.20;99.90;;;;;;5060335;28;20035;-66
2024/02/14 00:48:28;;;;;;;20.20;10.73;;;1.40;99.90;;;;;;5077523;28;20434;-66
2024/02/14 00:50:54;;;;;;;22.67;12.18;;;1.00;99.90;;;;;;5100632;28;20028;-66
2024/02/14 00:53:20;;;;;;;22.98;10.68;;;1.40;99.90;;;;;;5100667;28;20301;-66
2024/02/14 00:55:46;;;;;;;20.33;11.15;;;1.20;99.90;;;;;;5100199;28;20232;-65
2024/02/14 00:58:12;;;;;;;19.92;10.95;;;1.20;99.90;;;;;;5100292;28;20034;-67
2024/02/14 01:00:37;;;;;;;21.20;11.20;;;1.10;99.90;;;;;;5100173;28;20027;-68
2024/02/14 01:03:03;;;;;;;20.42;11.15;;;1.20;99.90;;;;;;5100281;28;20081;-67
2024/02/14 01:05:29;;;;;;;21.20;11.27;;;1.10;99.90;;;;;;5100810;28;20036;-67
2024/02/14 01:07:55;;;;;;;21.60;11.50;;;1.20;99.90;;;;;;5100109;28;20087;-66
2024/02/14 01:10:21;;;;;;;23.35;12.18;;;1.10;99.90;;;;;;5098835;28;20039;-67
2024/02/14 01:12:46;;;;;;;19.13;11.73;;;1.20;99.90;;;;;;5100154;28;20059;-67
2024/02/14 01:15:12;;;;;;;21.88;12.23;;;1.10;99.90;;;;;;5100046;28;20016;-67
2024/02/14 01:17:38;;;;;;;23.30;11.45;;;1.20;99.90;;;;;;5099997;28;20039;-67
2024/02/14 01:20:08;;;;;;;20.90;11.38;;;1.20;99.90;;;;;;5099996;28;20035;-67
2024/02/14 01:22:35;;;;;;;23.42;11.30;;;1.10;99.90;;;;;;5100276;28;20312;-67
2024/02/14 01:25:01;;;;;;;24.40;11.68;;;1.10;99.90;;;;;;5100036;28;20024;-68
2024/02/14 01:27:28;;;;;;;22.27;11.60;;;1.10;99.90;;;;;;5100045;28;20220;-67
2024/02/14 01:29:55;;;;;;;20.67;11.07;;;1.20;99.90;;;;;;5070484;28;20206;-68
2024/02/14 01:32:20;;;;;;;20.70;11.35;;;1.10;99.90;;;;;;5077708;28;20067;-66
2024/02/14 01:34:46;;;;;;;22.35;10.88;;;1.20;99.90;;;;;;5032501;28;1182271;-68
2024/02/14 01:37:12;;;;;;;20.48;10.60;;;;;;;;;;5094518;28;20048;-66
2024/02/14 01:39:38;;;;;;;19.42;11.82;;;0.90;99.90;;;;;;5080442;28;20025;-66
2024/02/14 01:42:07;;;;;;;20.85;11.77;;;0.80;99.90;;;;;;5080672;28;20317;-68
2024/02/14 01:44:34;;;;;;;21.52;11.05;;;1.10;99.90;;;;;;5080275;28;20316;-67
2024/02/14 01:47:00;;;;;;;21.30;11.48;;;1.00;99.90;;;;;;5080511;28;20028;-67
2024/02/14 01:49:28;;;;;;;20.17;11.48;;;1.00;99.90;;;;;;5080549;28;20099;-66
2024/02/14 01:51:58;;;;;;;21.20;10.52;;;1.00;99.90;;;;;;5080476;28;20012;-67
2024/02/14 01:54:25;;;;;;;19.40;11.15;;;1.10;99.90;;;;;;5080598;28;20025;-65
2024/02/14 01:56:52;;;;;;;19.67;11.55;;;1.00;99.90;;;;;;5080229;28;20041;-66
2024/02/14 01:59:18;;;;;;;19.30;11.30;;;0.90;99.90;;;;;;5080575;28;20062;-67
2024/02/14 02:01:44;;;;;;;21.38;11.30;;;1.10;99.90;;;;;;5080269;28;20334;-67
2024/02/14 02:04:10;;;;;;;23.60;11.18;;;1.10;99.90;;;;;;5080305;28;20100;-66
2024/02/14 02:06:37;;;;;;;22.90;11.55;;;1.10;99.90;;;;;;5080387;28;20032;-66
2024/02/14 02:09:03;;;;;;;21.58;11.02;;;1.30;99.90;;;;;;5080267;28;20039;-65
2024/02/14 02:11:29;;;;;;;24.88;11.90;;;1.00;99.90;;;;;;5080286;28;20048;-66
2024/02/14 02:13:55;;;;;;;22.05;11.52;;;1.10;99.90;;;;;;5080312;28;20020;-65
2024/02/14 02:16:21;;;;;;;19.55;10.45;;;1.10;99.90;;;;;;5080005;28;20077;-66
2024/02/14 02:18:48;;;;;;;20.80;10.73;;;1.00;99.90;;;;;;5080247;28;20027;-65
2024/02/14 02:21:14;;;;;;;20.48;11.63;;;1.10;99.90;;;;;;5080778;28;20031;-65
2024/02/14 02:23:45;;;;;;;22.45;11.07;;;0.80;99.90;;;;;;5083559;28;20037;-66
2024/02/14 02:26:11;;;;;;;24.50;12.73;;;0.90;99.90;;;;;;5083890;28;20032;-66
2024/02/14 02:28:37;;;;;;;23.23;11.43;;;1.10;99.90;;;;;;5083574;28;20021;-66
2024/02/14 02:31:03;;;;;;;23.75;11.40;;;0.80;99.90;;;;;;5083784;28;20070;-66
2024/02/14 02:33:28;;;;;;;22.20;11.35;;;0.80;99.90;;;;;;5083464;28;20060;-68
2024/02/14 02:35:54;;;;;;;20.38;11.85;;;0.70;99.90;;;;;;5083539;28;20213;-67
2024/02/14 02:38:21;;;;;;;21.80;11.75;;;1.00;99.90;;;;;;5083385;28;20032;-66
2024/02/14 02:40:47;;;;;;;24.83;12.25;;;1.00;99.90;;;;;;5083408;28;20013;-65
2024/02/14 02:43:13;;;;;;;24.17;12.27;;;0.90;99.90;;;;;;5082140;28;20016;-67
2024/02/14 02:45:39;;;;;;;25.60;11.70;;;0.90;99.90;;;;;;5083330;28;20024;-67
2024/02/14 02:48:05;;;;;;;24.65;11.43;;;1.00;99.90;;;;;;5083215;28;20021;-67
2024/02/14 02:50:31;;;;;;;22.85;11.07;;;0.80;99.90;;;;;;5083381;28;20087;-66
2024/02/14 02:52:57;;;;;;;24.70;12.55;;;0.90;99.90;;;;;;5083229;28;20055;-67
2024/02/14 02:55:23;;;;;;;24.92;12.50;;;1.10;99.90;;;;;;5083354;28;20016;-67
2024/02/14 02:57:49;;;;;;;25.98;12.35;;;1.20;99.90;;;;;;5083115;28;20232;-66
2024/02/14 03:00:15;;;;;;;22.02;11.95;;;0.90;99.90;;;;;;5082976;28;20032;-68
2024/02/14 03:02:44;;;;;;;25.48;11.70;;;0.80;99.90;;;;;;5083256;28;20032;-68
2024/02/14 03:05:17;;;;;;;23.52;11.48;;;0.80;99.90;;;;;;5083221;28;20035;-68
2024/02/14 03:07:45;;;;;;;21.75;11.52;;;0.40;99.90;;;;;;5082946;28;20032;-68
2024/02/14 03:10:12;;;;;;;22.60;11.88;;;0.60;99.90;;;;;;5082916;28;20313;-68
2024/02/14 03:12:38;;;;;;;20.67;11.57;;;1.00;99.90;;;;;;5083097;28;20051;-68
2024/02/14 03:15:05;;;;;;;22.77;12.13;;;0.70;99.90;;;;;;5082918;28;20020;-68
2024/02/14 03:17:31;;;;;;;24.38;11.98;;;0.60;99.90;;;;;;5082876;28;20040;-68
2024/02/14 03:19:57;;;;;;;23.35;12.77;;;0.70;99.90;;;;;;5082912;28;20100;-66
2024/02/14 03:22:23;;;;;;;25.10;13.00;;;0.70;99.90;;;;;;5081586;28;20024;-67
2024/02/14 03:24:48;;;;;;;24.60;12.52;;;0.70;99.90;;;;;;5082554;28;20023;-67
2024/02/14 03:27:14;;;;;;;24.50;11.88;;;0.70;99.90;;;;;;5082710;28;20039;-67
2024/02/14 03:29:40;;;;;;;25.33;12.65;;;0.60;99.90;;;;;;5082857;28;20335;-67
2024/02/14 03:32:08;;;;;;;26.58;11.35;;;0.50;99.90;;;;;;5081138;28;20028;-66
2024/02/14 03:34:35;;;;;;;22.83;11.57;;;0.70;99.90;;;;;;5081087;28;20076;-65
2024/02/14 03:37:06;;;;;;;23.20;11.18;;;0.60;99.90;;;;;;5093676;28;20044;-66
2024/02/14 03:39:32;;;;;;;25.17;11.82;;;0.50;99.90;;;;;;5102592;28;20390;-66
2024/02/14 03:42:00;;;;;;;24.30;11.90;;;0.40;99.90;;;;;;5102566;28;20103;-66
2024/02/14 03:44:26;;;;;;;20.55;11.02;;;0.40;99.90;;;;;;5102320;28;20027;-66
2024/02/14 03:46:53;;;;;;;22.65;11.50;;;0.50;99.90;;;;;;5101474;28;20055;-66
2024/02/14 03:49:19;;;;;;;23.25;11.32;;;0.90;99.90;;;;;;5102535;28;20028;-67
2024/02/14 03:51:46;;;;;;;28.27;11.60;;;0.40;99.90;;;;;;5102565;28;20024;-66
2024/02/14 03:54:11;;;;;;;23.70;11.10;;;0.40;99.90;;;;;;5102524;28;20031;-65
2024/02/14 03:56:37;;;;;;;23.13;12.10;;;0.50;99.90;;;;;;5102183;28;20044;-65
2024/02/14 03:59:05;;;;;;;25.58;11.30;;;0.30;99.90;;;;;;5102482;28;20126;-66
2024/02/14 04:01:31;;;;;;;24.65;12.25;;;0.50;99.90;;;;;;5102110;28;20030;-66
2024/02/14 04:03:57;;;;;;;24.25;12.07;;;0.40;99.90;;;;;;5102312;28;20012;-66
2024/02/14 04:06:22;;;;;;;23.52;11.98;;;0.40;99.90;;;;;;5102271;28;20024;-65
2024/02/14 04:08:49;;;;;;;23.05;11.43;;;0.20;99.90;;;;;;5102165;28;20024;-65
2024/02/14 04:11:14;;;;;;;22.83;11.95;;;0.40;99.90;;;;;;5102040;28;20023;-65
2024/02/14 04:13:40;;;;;;;22.85;11.52;;;0.20;99.90;;;;;;5101805;28;20022;-66
2024/02/14 04:16:06;;;;;;;24.45;11.48;;;0.30;99.90;;;;;;5101885;28;20036;-66
2024/02/14 04:18:32;;;;;;;25.40;13.32;;;0.40;99.90;;;;;;5101914;28;20215;-66
2024/02/14 04:20:58;;;;;;;19.25;11.27;;;0.00;99.90;;;;;;5101639;28;20024;-66
2024/02/14 04:23:25;;;;;;;22.02;11.80;;;0.20;99.90;;;;;;5101974;28;20028;-66
2024/02/14 04:25:51;;;;;;;23.17;12.00;;;0.10;99.90;;;;;;5101628;28;20039;-66
2024/02/14 04:28:16;;;;;;;24.52;13.45;;;0.30;99.90;;;;;;5101692;28;20028;-65
2024/02/14 04:30:43;;;;;;;24.05;11.43;;;0.30;99.90;;;;;;5101934;28;20016;-66
2024/02/14 04:33:09;;;;;;;22.35;11.85;;;0.40;99.90;;;;;;5101614;28;20074;-67
2024/02/14 04:35:34;;;;;;;24.58;12.70;;;0.30;99.90;;;;;;5101454;28;20028;-65
2024/02/14 04:38:00;;;;;;;23.52;11.85;;;0.10;99.90;;;;;;5101494;28;20084;-65
2024/02/14 04:40:26;;;;;;;21.35;11.27;;;0.20;99.90;;;;;;5101706;28;20024;-65
2024/02/14 04:42:52;;;;;;;21.17;10.88;;;0.10;99.90;;;;;;5101567;28;20028;-66
2024/02/14 04:45:18;;;;;;;24.65;11.43;;;0.20;99.90;;;;;;5101221;28;20056;-63
2024/02/14 04:47:44;;;;;;;23.92;12.20;;;0.10;99.90;;;;;;5101370;28;20027;-64
2024/02/14 04:50:10;;;;;;;23.52;12.05;;;0.10;99.90;;;;;;5101280;28;20040;-66
2024/02/14 04:52:35;;;;;;;23.45;11.93;;;0.10;99.90;;;;;;5101371;28;20016;-66
2024/02/14 04:55:01;;;;;;;24.58;12.20;;;0.10;99.90;;;;;;5101460;28;20307;-65
2024/02/14 04:57:27;;;;;;;24.08;12.65;;;0.10;99.90;;;;;;5101059;28;20056;-65
2024/02/14 04:59:52;;;;;;;28.77;13.55;;;0.10;99.90;;;;;;5101229;28;20051;-65
2024/02/14 05:02:18;;;;;;;27.67;12.48;;;0.00;99.90;;;;;;5101366;28;20039;-65
2024/02/14 05:04:44;;;;;;;24.90;11.98;;;0.40;99.90;;;;;;5101708;28;20397;-65
2024/02/14 05:07:10;;;;;;;30.02;11.93;;;-0.20;99.90;;;;;;5101034;28;20074;-65
2024/02/14 05:09:35;;;;;;;28.73;13.25;;;0.00;99.90;;;;;;5101032;28;20023;-66
2024/02/14 05:12:03;;;;;;;26.55;13.07;;;-0.20;99.90;;;;;;5089637;28;20021;-66
2024/02/14 05:14:31;;;;;;;26.45;12.93;;;0.20;99.90;;;;;;5080894;28;20240;-64
2024/02/14 05:16:57;;;;;;;24.37;13.17;;;0.10;99.90;;;;;;5081083;28;20043;-64
2024/02/14 05:19:23;;;;;;;24.75;13.10;;;0.20;99.90;;;;;;5080911;28;20028;-64
2024/02/14 05:21:49;;;;;;;22.10;11.88;;;0.00;99.90;;;;;;5080807;28;20027;-64
2024/02/14 05:24:15;;;;;;;26.23;13.43;;;0.20;99.90;;;;;;5080834;28;20028;-64
2024/02/14 05:26:41;;;;;;;25.23;13.32;;;0.20;99.90;;;;;;5080804;28;20034;-64
2024/02/14 05:29:08;;;;;;;24.90;11.75;;;0.10;99.90;;;;;;5081025;28;20017;-65
2024/02/14 05:31:44;;;;;;;19.67;11.48;;;-0.10;99.90;;;;;;5081014;28;20032;-65
2024/02/14 05:34:10;;;;;;;25.88;12.45;;;-0.10;99.90;;;;;;5080189;28;20057;-65
2024/02/14 05:36:36;;;;;;;25.25;13.27;;;-0.10;99.90;;;;;;5080628;28;20095;-66
2024/02/14 05:39:02;;;;;;;25.65;12.80;;;0.00;99.90;;;;;;5100012;28;20034;-66
2024/02/14 05:41:28;;;;;;;25.75;11.65;;;-0.20;99.90;;;;;;5100166;28;20032;-65
2024/02/14 05:43:54;;;;;;;23.52;12.40;;;0.00;99.90;;;;;;5101233;28;20027;-65
2024/02/14 05:46:21;;;;;;;33.28;13.45;;;-0.10;99.90;;;;;;5101112;28;20020;-66
2024/02/14 05:48:48;;;;;;;28.85;12.77;;;-0.10;99.90;;;;;;5101035;28;20206;-66
2024/02/14 05:51:13;;;;;;;24.77;13.15;;;-0.10;99.90;;;;;;5101197;28;20032;-65
2024/02/14 05:53:39;;;;;;;25.63;12.60;;;-0.10;99.90;;;;;;5100718;28;20023;-66
2024/02/14 05:56:05;;;;;;;21.67;12.20;;;-0.10;99.90;;;;;;5101134;28;20032;-66
2024/02/14 05:58:31;;;;;;;23.40;12.32;;;-0.10;99.90;;;;;;5104394;28;20041;-66
2024/02/14 06:00:57;;;;;;;23.83;13.00;;;-0.10;99.90;;;;;;5103303;28;20331;-65
2024/02/14 06:03:23;;;;;;;25.10;12.38;;;-0.20;99.90;;;;;;5104871;28;20079;-65
2024/02/14 06:05:48;;;;;;;25.65;11.85;;;-0.30;99.90;;;;;;5103346;28;20320;-67
2024/02/14 06:08:14;;;;;;;24.45;13.18;;;-0.10;99.90;;;;;;5104525;28;20403;-66
2024/02/14 06:10:40;;;;;;;24.67;12.00;;;;;;;;;;5104414;28;20057;-67
2024/02/14 06:13:06;;;;;;;22.48;11.55;;;;;;;;;;5104357;28;20089;-65
2024/02/14 06:15:32;;;;;;;22.98;12.13;;;-0.10;99.90;;;;;;5104362;28;20102;-67
2024/02/14 06:17:57;;;;;;;22.35;12.38;;;0.20;99.90;;;;;;5102938;28;20313;-67
2024/02/14 06:20:23;;;;;;;24.40;11.38;;;0.00;99.90;;;;;;5102862;28;20043;-68
2024/02/14 06:22:49;;;;;;;23.38;11.13;;;0.10;99.90;;;;;;5104314;28;20040;-68
2024/02/14 06:25:16;;;;;;;24.65;12.15;;;0.10;99.90;;;;;;5103984;28;20249;-68
2024/02/14 06:27:42;;;;;;;22.15;12.38;;;0.10;99.90;;;;;;5104083;28;20323;-68
2024/02/14 06:30:08;;;;;;;22.67;12.32;;;0.00;99.90;;;;;;5103973;28;20093;-67
2024/02/14 06:32:34;;;;;;;20.42;11.07;;;0.10;99.90;;;;;;5103594;28;20086;-65
2024/02/14 06:34:59;;;;;;;23.75;11.35;;;0.20;99.90;;;;;;5103858;28;20032;-65
2024/02/14 06:37:25;;;;;;;24.15;11.02;;;0.20;99.90;;;;;;5103773;28;20032;-65
2024/02/14 06:39:51;;;;;;;23.80;12.30;;;-0.20;99.90;;;;;;5103755;28;20023;-65
2024/02/14 06:42:17;;;;;;;23.17;10.70;;;0.20;99.90;;;;;;5103648;28;20099;-65
2024/02/14 06:44:43;;;;;;;23.70;11.20;;;0.30;99.90;;;;;;5103984;28;20024;-66
2024/02/14 06:47:08;;;;;;;21.52;11.48;;;0.30;99.90;;;;;;5102366;28;20022;-65
2024/02/14 06:49:34;;;;;;;20.52;11.48;;;0.30;99.90;;;;;;5103849;28;20101;-65
2024/02/14 06:52:01;;;;;;;27.15;12.60;;;0.40;99.90;;;;;;5103710;28;20281;-66
2024/02/14 06:54:27;;;;;;;24.23;11.60;;;0.30;99.90;;;;;;5103707;28;20054;-65
2024/02/14 06:56:53;;;;;;;22.42;11.70;;;0.30;99.90;;;;;;5103678;28;20263;-64
2024/02/14 06:59:19;;;;;;;22.77;12.20;;;;;;;;;;5103385;28;20260;-65
2024/02/14 07:01:44;;;;;;;20.92;10.73;;;0.30;99.90;;;;;;5103721;28;20016;-65
2024/02/14 07:04:10;;;;;;;19.90;11.27;;;0.30;99.90;;;;;;5103426;28;20034;-64
2024/02/14 07:06:36;;;;;;;20.33;10.93;;;0.30;99.90;;;;;;5102304;28;20039;-66
2024/02/14 07:09:01;;;;;;;20.75;10.95;;;0.40;99.90;;;;;;5103311;28;20355;-67
2024/02/14 07:11:27;;;;;;;21.58;10.52;;;0.50;99.90;;;;;;5103526;28;20316;-65
2024/02/14 07:13:53;;;;;;;18.65;10.20;;;0.70;99.90;;;;;;5102270;28;20028;-66
2024/02/14 07:16:19;;;;;;;21.58;11.15;;;0.80;99.90;;;;;;5101577;28;20036;-65
2024/02/14 07:18:44;;;;;;;21.92;11.05;;;0.80;99.90;;;;;;5103145;28;20024;-66
2024/02/14 07:21:10;;;;;;;25.35;11.27;;;0.60;99.90;;;;;;5103103;28;20076;-65
2024/02/14 07:23:36;;;;;;;26.48;12.25;;;1.00;99.90;;;;;;5102401;28;20028;-66
2024/02/14 07:26:02;;;;;;;26.80;13.02;;;1.00;99.90;;;;;;5101639;28;20091;-65
2024/02/14 07:28:28;;;;;;;26.40;13.00;;;1.10;99.90;;;;;;5098832;28;20031;-66
2024/02/14 07:30:53;;;;;;;25.98;13.65;;;1.30;99.90;;;;;;5078364;28;20039;-67
2024/02/14 07:33:19;;;;;;;23.38;11.27;;;1.30;99.90;;;;;;5080627;28;20391;-66
2024/02/14 07:35:47;;;;;;;25.33;12.93;;;1.30;99.90;;;;;;5080948;28;20035;-66
2024/02/14 07:38:12;;;;;;;24.55;12.13;;;1.40;99.90;;;;;;5080782;28;20025;-66
2024/02/14 07:40:39;;;;;;;22.05;12.48;;;1.60;99.90;;;;;;5080703;28;20032;-66
2024/02/14 07:43:07;;;;;;;20.98;12.30;;;1.90;99.90;;;;;;5081326;28;20036;-65
2024/02/14 07:45:32;;;;;;;24.25;13.07;;;2.00;99.90;;;;;;5081712;28;20030;-66
2024/02/14 07:47:58;;;;;;;24.50;13.43;;;1.90;99.90;;;;;;5082134;28;20251;-65
2024/02/14 07:50:24;;;;;;;19.67;11.70;;;2.10;99.90;;;;;;5081053;28;20251;-64
2024/02/14 07:52:50;;;;;;;24.23;13.52;;;2.20;99.90;;;;;;5082416;28;20035;-64
2024/02/14 07:55:15;;;;;;;24.67;13.65;;;2.40;99.90;;;;;;5082313;28;20339;-63
2024/02/14 07:57:42;;;;;;;33.83;13.75;;;2.50;99.90;;;;;;5082210;28;20228;-64
2024/02/14 08:00:10;;;;;;;30.10;13.25;;;2.60;99.90;;;;;;5081996;28;20052;-64
2024/02/14 08:02:36;;;;;;;30.70;15.20;;;2.90;99.90;;;;;;5082218;28;20098;-64
2024/02/14 08:05:02;;;;;;;26.30;14.52;;;3.00;99.90;;;;;;5082215;28;20030;-64
2024/02/14 08:07:27;;;;;;;23.88;13.93;;;3.10;99.90;;;;;;5082145;28;20044;-64
2024/02/14 08:09:55;;;;;;;25.80;14.32;;;3.20;99.90;;;;;;5077969;28;20111;-64
2024/02/14 08:12:21;;;;;;;30.23;15.18;;;3.20;99.90;;;;;;5081620;28;20098;-64
2024/02/14 08:14:47;;;;;;;27.92;16.05;;;3.40;99.90;;;;;;5082465;28;20032;-67
2024/02/14 08:17:13;;;;;;;24.63;14.45;;;3.60;99.90;;;;;;5083253;28;20103;-65
2024/02/14 08:19:39;;;;;;;23.90;13.32;;;3.70;99.90;;;;;;5082860;28;20029;-66
2024/02/14 08:22:05;;;;;;;21.40;12.68;;;4.00;99.90;;;;;;5080076;28;20033;-65
2024/02/14 08:24:31;;;;;;;21.58;12.27;;;4.10;99.90;;;;;;5066077;28;20025;-64
2024/02/14 08:26:57;;;;;;;23.20;12.18;;;4.30;99.90;;;;;;5062886;28;20092;-64
2024/02/14 08:29:23;;;;;;;21.13;12.02;;;4.40;99.90;;;;;;5062769;28;20075;-63
2024/02/14 08:31:49;;;;;;;27.05;13.13;;;4.50;99.90;;;;;;5070679;28;20301;-63
2024/02/14 08:34:15;;;;;;;28.88;13.77;;;4.70;99.90;;;;;;5061478;28;20072;-63
2024/02/14 08:36:42;;;;;;;18.60;12.07;;;5.20;99.90;;;;;;5063394;28;20040;-64
2024/02/14 08:39:08;;;;;;;21.70;11.60;;;5.00;99.90;;;;;;5069961;28;20020;-65
2024/02/14 08:41:33;;;;;;;19.67;10.55;;;5.20;99.90;;;;;;5073160;28;20036;-64
2024/02/14 08:43:59;;;;;;;22.02;10.93;;;5.30;99.90;;;;;;5067670;28;20048;-65
2024/02/14 08:46:25;;;;;;;18.13;10.68;;;5.40;99.90;;;;;;5072982;28;20028;-67
2024/02/14 08:48:51;;;;;;;18.13;9.48;;;5.50;99.90;;;;;;5081792;28;20067;-67
2024/02/14 08:51:20;;;;;;;14.95;9.32;;;5.60;99.90;;;;;;5075748;28;20096;-66
2024/02/14 08:53:46;;;;;;;14.75;9.10;;;5.70;99.90;;;;;;5075333;28;20047;-63
2024/02/14 08:56:12;;;;;;;13.13;8.27;;;5.90;99.90;;;;;;5061845;28;20041;-65
2024/02/14 08:58:38;;;;;;;14.45;8.73;;;5.90;99.90;;;;;;5061575;28;20059;-68
2024/02/14 09:01:03;;;;;;;13.77;8.25;;;6.00;99.70;;;;;;5061140;28;20336;-64
2024/02/14 09:03:31;;;;;;;14.68;7.78;;;6.10;99.80;;;;;;5061226;28;20021;-65
2024/02/14 09:05:57;;;;;;;21.02;8.07;;;6.20;98.10;;;;;;5061216;28;20024;-64
2024/02/14 09:08:24;;;;;;;12.88;7.53;;;6.40;99.90;;;;;;5061558;28;20024;-64
2024/02/14 09:10:52;;;;;;;11.82;7.47;;;6.30;97.50;;;;;;5062462;28;20036;-65
2024/02/14 09:13:18;;;;;;;12.98;7.68;;;6.40;97.40;;;;;;5062294;28;20092;-65
2024/02/14 09:15:44;;;;;;;11.75;7.05;;;6.50;96.70;;;;;;5062496;28;20043;-64
2024/02/14 09:18:09;;;;;;;11.60;7.78;;;6.60;96.00;;;;;;5062506;28;20262;-64
2024/02/14 09:20:37;;;;;;;11.70;7.45;;;6.80;95.10;;;;;;5062568;28;20017;-66
2024/02/14 09:23:03;;;;;;;14.00;8.88;;;6.80;93.20;;;;;;5062312;28;20021;-67
2024/02/14 09:25:29;;;;;;;12.40;7.63;;;6.90;93.50;;;;;;5062080;28;20036;-65
2024/02/14 09:27:54;;;;;;;11.27;7.50;;;7.00;91.70;;;;;;5062012;28;20021;-64
2024/02/14 09:30:20;;;;;;;9.98;6.72;;;7.10;91.00;;;;;;5060898;28;20329;-64
2024/02/14 09:32:47;;;;;;;10.98;6.90;;;7.40;99.30;;;;;;5064291;28;20299;-64
2024/02/14 09:35:13;;;;;;;12.85;7.55;;;7.30;89.10;;;;;;5063710;28;20028;-64
2024/02/14 09:37:39;;;;;;;15.55;7.65;;;7.40;87.40;;;;;;5065039;28;20047;-64
2024/02/14 09:40:05;;;;;;;12.23;7.13;;;7.50;87.80;;;;;;5068301;28;20332;-64
2024/02/14 09:42:41;;;;;;;12.63;6.75;;;7.60;86.60;;;;;;5077244;28;20025;-63
2024/02/14 09:45:07;;;;;;;12.10;6.30;;;7.70;83.50;;;;;;5069120;28;20031;-64
2024/02/14 09:47:33;;;;;;;11.38;7.13;;;7.80;82.10;;;;;;5079945;28;20025;-64
2024/02/14 09:50:02;;;;;;;14.52;7.18;;;7.80;81.30;;;;;;5078258;28;20024;-64
2024/02/14 09:52:29;;;;;;;;;;;7.80;81.50;;;;;;5085061;28;20232;-63
2024/02/14 09:54:55;;;;;;;13.88;7.78;;;7.90;79.50;;;;;;5083820;28;19907;-64
2024/02/14 09:57:21;;;;;;;13.45;8.32;;;7.90;95.30;;;;;;5083084;28;20032;-63
2024/02/14 09:59:49;;;;;;;11.73;8.10;;;7.90;79.80;;;;;;5083136;28;20048;-64
2024/02/14 10:02:16;;;;;;;11.65;7.95;;;8.00;79.70;;;;;;5082810;28;20439;-63
2024/02/14 10:04:41;;;;;;;11.30;8.00;;;8.00;78.00;;;;;;5083269;28;20112;-63
2024/02/14 10:07:08;;;;;;;11.90;8.32;;;8.10;79.10;;;;;;5083082;28;20025;-63
2024/02/14 10:09:41;;;;;;;14.23;8.52;;;8.20;77.40;;;;;;5083744;28;20031;-64
2024/02/14 10:12:08;;;;;;;15.07;8.50;;;8.30;77.70;;;;;;5083923;28;20028;-63
2024/02/14 10:14:36;;;;;;;16.58;7.72;;;8.50;77.20;;;;;;5084205;28;20043;-64
2024/02/14 10:17:02;;;;;;;10.57;6.72;;;8.70;74.80;;;;;;5083838;28;20028;-64
2024/02/14 10:19:27;;;;;;;13.45;7.30;;;8.70;71.90;;;;;;5084131;28;20033;-63
2024/02/14 10:21:57;;;;;;;12.05;7.53;;;8.90;91.70;;;;;;5083982;28;20025;-64
2024/02/14 10:24:27;;;;;;;9.88;5.25;;;8.90;71.70;;;;;;5083796;28;20020;-63
2024/02/14 10:26:53;;;;;;;8.55;5.90;;;9.10;70.90;;;;;;5083716;28;20343;-63
2024/02/14 10:29:22;;;;;;;10.30;5.90;;;9.20;69.50;;;;;;5083893;28;20029;-63
2024/02/14 10:31:48;;;;;;;8.15;4.65;;;9.30;66.60;;;;;;5083933;28;20019;-63
2024/02/14 10:34:15;;;;;;;8.25;5.60;;;9.30;66.10;;;;;;5083647;28;20107;-63
2024/02/14 10:36:43;;;;;;;9.15;5.00;;;9.30;64.40;;;;;;5083878;28;20032;-64
2024/02/14 10:39:11;;;;;;;9.18;4.38;;;9.40;64.00;;;;;;5083846;28;20303;-63
2024/02/14 10:41:37;;;;;;;8.05;4.80;;;9.40;64.20;;;;;;5083212;28;20069;-63
2024/02/14 10:44:05;;;;;;;8.57;5.20;;;9.50;63.00;;;;;;5083238;28;20029;-63
2024/02/14 10:46:37;;;;;;;10.23;5.38;;;9.60;62.90;;;;;;5083497;28;20032;-64
2024/02/14 10:49:04;;;;;;;7.13;5.32;;;9.70;62.90;;;;;;5083299;28;20091;-64
2024/02/14 10:51:33;;;;;;;6.78;4.07;;;9.80;62.00;;;;;;5083507;28;20016;-63
2024/02/14 10:54:00;;;;;;;6.05;3.15;;;9.80;60.80;;;;;;5083293;28;20021;-64
2024/02/14 10:56:28;;;;;;;6.10;3.75;;;9.80;59.60;;;;;;5083240;28;20062;-63
2024/02/14 10:58:58;;;;;;;9.30;5.55;;;9.70;59.10;;;;;;5083167;28;20023;-63
2024/02/14 11:01:26;;;;;;;6.85;3.42;;;9.80;60.00;;;;;;5083653;28;20419;-64
2024/02/14 11:03:52;;;;;;;5.22;3.10;;;9.90;59.40;;;;;;5082970;28;20052;-64
2024/02/14 11:06:18;;;;;;;6.03;3.60;;;9.90;59.10;;;;;;5082949;28;20049;-63
2024/02/14 11:09:07;;;;;;;7.07;4.00;;;10.00;58.40;;;;;;5083212;28;20020;-63
2024/02/14 11:11:33;;;;;;;;;;;10.00;59.00;;;;;;5083421;28;20017;-64
2024/02/14 11:13:59;;;;;;;8.40;4.85;;;10.10;58.70;;;;;;5083077;28;19993;-63
2024/02/14 11:16:27;;;;;;;7.80;5.15;;;10.20;59.00;;;;;;5082830;28;20052;-64
2024/02/14 11:18:54;;;;;;;7.18;4.82;;;10.20;59.10;;;;;;5082988;28;20020;-64
2024/02/14 11:21:20;;;;;;;8.18;5.07;;;10.30;58.70;;;;;;5082657;28;20043;-64
2024/02/14 11:23:55;;;;;;;9.55;5.03;;;10.30;59.00;;;;;;5082691;28;20016;-63
2024/02/14 11:26:23;;;;;;;7.45;4.90;;;10.40;58.80;;;;;;5082825;28;20251;-64
2024/02/14 11:28:49;;;;;;;8.18;5.18;;;10.50;59.20;;;;;;5082728;28;20075;-63
2024/02/14 11:31:17;;;;;;;7.97;5.03;;;10.70;59.00;;;;;;5082577;28;20024;-64
2024/02/14 11:33:46;;;;;;;7.40;4.53;;;10.70;58.10;;;;;;5082116;28;20247;-64
2024/02/14 11:36:14;;;;;;;8.48;5.55;;;10.70;58.70;;;;;;5082567;28;20032;-63
2024/02/14 11:38:41;;;;;;;7.53;4.90;;;10.70;58.30;;;;;;5082305;28;20016;-63
2024/02/14 11:41:06;;;;;;;12.07;5.85;;;10.80;58.50;;;;;;5082183;28;20032;-64
2024/02/14 11:43:32;;;;;;;11.55;5.72;;;11.10;58.10;;;;;;5082443;28;20021;-64
2024/02/14 11:45:58;;;;;;;11.00;6.18;;;11.40;58.30;;;;;;5082161;28;20382;-64
2024/02/14 11:48:24;;;;;;;8.70;5.55;;;11.70;57.80;;;;;;5082342;28;20042;-64
2024/02/14 11:50:52;;;;;;;7.70;6.25;;;12.00;56.90;;;;;;5082581;28;20225;-64
2024/02/14 11:53:18;;;;;;;8.63;5.90;;;12.30;56.10;;;;;;5081931;28;20028;-64
2024/02/14 11:55:48;;;;;;;7.45;5.75;;;12.40;55.60;;;;;;5081426;28;20626;-64
2024/02/14 11:58:15;;;;;;;11.10;5.22;;;12.50;55.20;;;;;;5082374;28;20024;-63
2024/02/14 12:00:46;;;;;;;6.72;5.00;;;12.60;54.60;;;;;;5081854;28;20376;-63
2024/02/14 12:03:23;;;;;;;8.70;5.47;;;12.70;74.60;;;;;;5081791;28;20028;-63
2024/02/14 12:05:51;;;;;;;8.45;5.75;;;12.40;54.40;;;;;;5081732;28;20051;-63
2024/02/14 12:08:17;;;;;;;10.85;6.00;;;12.30;54.90;;;;;;5081965;28;20055;-63
2024/02/14 12:10:49;;;;;;;8.48;6.38;;;12.20;55.20;;;;;;5081926;28;20024;-63
2024/02/14 12:13:17;;;;;;;8.15;5.50;;;12.40;55.20;;;;;;5081944;28;20025;-63
2024/02/14 12:15:45;;;;;;;6.45;5.10;;;12.50;54.40;;;;;;5081678;28;20012;-64
2024/02/14 12:18:11;;;;;;;9.70;5.07;;;12.70;54.60;;;;;;5080537;28;20040;-63
2024/02/14 12:20:38;;;;;;;12.15;5.20;;;12.80;54.10;;;;;;5081639;28;20028;-64
2024/02/14 12:23:08;;;;;;;8.02;5.03;;;12.80;53.30;;;;;;5081314;28;20024;-65
2024/02/14 12:25:34;;;;;;;9.02;4.75;;;12.80;54.20;;;;;;5081715;28;20017;-65
2024/02/14 12:28:03;;;;;;;8.18;5.63;;;12.60;75.00;;;;;;5081291;28;20247;-65
2024/02/14 12:30:49;;;;;;;5.85;4.55;;;12.70;53.70;;;;;;5081382;28;20064;-65
2024/02/14 12:33:16;;;;;;;7.47;5.82;;;12.50;53.70;;;;;;5081139;28;20515;-65
2024/02/14 12:35:46;;;;;;;8.25;5.80;;;12.60;54.10;;;;;;5081293;28;20024;-65
2024/02/14 12:38:12;;;;;;;10.63;5.43;;;12.50;54.00;;;;;;5081243;28;20016;-65